createdAt,value
2023-02-04T00:00:07.350Z,7.50
2023-02-04T00:02:54.849Z,11.63
2023-02-04T00:05:37.089Z,4.57
2023-02-04T00:08:09.434Z,7.57
2023-02-04T00:11:09.306Z,4.85
2023-02-04T00:13:39.244Z,7.25
2023-02-04T00:16:09.310Z,5.30
2023-02-04T00:19:08.276Z,4.20
2023-02-04T00:21:37.396Z,4.90
2023-02-04T00:24:25.572Z,5.38
2023-02-04T00:26:56.536Z,4.10
2023-02-04T00:29:24.376Z,3.45
2023-02-04T00:31:56.652Z,4.75
2023-02-04T00:34:45.090Z,5.40
2023-02-04T00:37:17.255Z,6.75
2023-02-04T00:39:45.210Z,6.97
2023-02-04T00:42:15.347Z,8.07
2023-02-04T00:44:55.016Z,10.05
2023-02-04T00:50:46.682Z,9.82
2023-02-04T00:53:18.676Z,12.25
2023-02-04T00:55:59.810Z,9.25
2023-02-04T00:58:27.821Z,9.75
2023-02-04T01:01:02.061Z,7.68
2023-02-04T01:03:46.256Z,8.95
2023-02-04T01:06:32.472Z,10.45
2023-02-04T01:09:32.393Z,8.90
2023-02-04T01:12:42.686Z,5.65
2023-02-04T01:15:24.276Z,10.68
2023-02-04T01:17:52.352Z,9.73
2023-02-04T01:20:50.624Z,12.68
2023-02-04T01:23:20.454Z,8.65
2023-02-04T01:26:02.317Z,9.07
2023-02-04T01:28:54.136Z,6.85
2023-02-04T01:31:24.115Z,7.05
2023-02-04T01:33:54.076Z,5.30
2023-02-04T01:36:23.998Z,6.60
2023-02-04T01:39:02.669Z,7.40
2023-02-04T01:41:45.713Z,9.95
2023-02-04T01:44:16.917Z,13.50
2023-02-04T01:46:55.659Z,10.15
2023-02-04T01:49:34.747Z,6.97
2023-02-04T01:52:03.397Z,10.80
2023-02-04T01:54:32.542Z,4.93
2023-02-04T01:57:16.404Z,8.18
2023-02-04T01:59:56.943Z,8.77
2023-02-04T02:02:43.364Z,5.38
2023-02-04T02:05:16.261Z,11.65
2023-02-04T02:07:48.093Z,12.57
2023-02-04T02:10:16.381Z,5.13
2023-02-04T02:15:58.224Z,8.52
2023-02-04T02:18:26.841Z,7.93
2023-02-04T02:20:57.472Z,11.13
2023-02-04T02:26:44.247Z,13.68
2023-02-04T02:29:25.469Z,9.38
2023-02-04T02:32:03.143Z,8.80
2023-02-04T02:37:49.078Z,10.02
2023-02-04T02:40:27.499Z,9.20
2023-02-04T02:42:56.663Z,12.18
2023-02-04T02:45:32.782Z,10.45
2023-02-04T02:48:04.173Z,11.55
2023-02-04T02:50:33.700Z,8.05
2023-02-04T02:53:03.046Z,12.35
2023-02-04T02:55:43.362Z,14.60
2023-02-04T02:58:17.238Z,8.80
2023-02-04T03:00:55.365Z,9.98
2023-02-04T03:03:35.387Z,8.25
2023-02-04T03:06:32.683Z,6.00
2023-02-04T03:09:03.773Z,8.18
2023-02-04T03:11:57.703Z,13.73
2023-02-04T03:14:32.017Z,8.63
2023-02-04T03:17:20.051Z,15.13
2023-02-04T03:19:59.634Z,9.82
2023-02-04T03:22:33.554Z,11.80
2023-02-04T03:28:20.969Z,13.98
2023-02-04T03:31:11.224Z,11.07
2023-02-04T03:33:41.149Z,13.63
2023-02-04T03:36:11.587Z,14.15
2023-02-04T03:38:41.566Z,10.32
2023-02-04T03:41:14.465Z,12.57
2023-02-04T03:43:54.149Z,15.63
2023-02-04T03:46:36.252Z,10.15
2023-02-04T03:49:12.000Z,9.10
2023-02-04T03:51:52.452Z,9.73
2023-02-04T03:54:22.300Z,11.43
2023-02-04T03:56:54.317Z,8.60
2023-02-04T03:59:23.074Z,6.75
2023-02-04T04:01:58.157Z,10.65
2023-02-04T04:04:39.300Z,8.63
2023-02-04T04:07:09.461Z,12.45
2023-02-04T04:09:39.253Z,4.68
2023-02-04T04:12:08.323Z,7.65
2023-02-04T04:14:59.164Z,9.70
2023-02-04T04:17:56.025Z,12.00
2023-02-04T04:20:29.365Z,11.30
2023-02-04T04:23:00.383Z,8.55
2023-02-04T04:29:19.581Z,6.93
2023-02-04T04:32:10.920Z,6.93
2023-02-04T04:34:42.758Z,9.77
2023-02-04T04:37:10.920Z,11.63
2023-02-04T04:39:48.168Z,14.85
2023-02-04T04:42:34.051Z,10.85
2023-02-04T04:45:05.924Z,11.60
2023-02-04T04:47:46.597Z,7.85
2023-02-04T04:50:14.604Z,9.33
2023-02-04T04:53:05.598Z,10.85
2023-02-04T04:56:17.576Z,9.50
2023-02-04T05:01:53.730Z,14.25
2023-02-04T05:04:21.576Z,8.18
2023-02-04T05:06:52.947Z,7.10
2023-02-04T05:09:23.829Z,9.38
2023-02-04T05:12:01.917Z,9.35
2023-02-04T05:14:52.068Z,8.23
2023-02-04T05:17:30.830Z,6.10
2023-02-04T05:20:28.704Z,6.90
2023-02-04T05:23:05.730Z,7.85
2023-02-04T05:25:40.111Z,9.52
2023-02-04T05:28:19.106Z,11.82
2023-02-04T05:31:08.646Z,6.82
2023-02-04T05:33:44.642Z,9.90
2023-02-04T05:36:14.299Z,8.63
2023-02-04T05:39:03.094Z,9.25
2023-02-04T05:41:37.983Z,11.27
2023-02-04T05:44:11.905Z,10.45
2023-02-04T05:49:52.850Z,6.57
2023-02-04T05:52:21.997Z,5.22
2023-02-04T05:55:02.086Z,14.25
2023-02-04T05:57:33.035Z,9.90
2023-02-04T06:00:38.292Z,9.23
2023-02-04T06:03:06.836Z,8.23
2023-02-04T06:05:52.302Z,10.30
2023-02-04T06:08:40.582Z,9.00
2023-02-04T06:11:13.639Z,9.15
2023-02-04T06:13:44.674Z,7.80
2023-02-04T06:16:21.746Z,7.90
2023-02-04T06:18:58.669Z,7.22
2023-02-04T06:21:28.535Z,10.25
2023-02-04T06:23:56.365Z,11.43
2023-02-04T06:26:24.454Z,15.52
2023-02-04T06:29:15.181Z,10.85
2023-02-04T06:31:45.918Z,9.23
2023-02-04T06:34:14.690Z,11.02
2023-02-04T06:36:52.704Z,3.90
2023-02-04T06:39:27.606Z,3.80
2023-02-04T06:41:56.429Z,1.88
2023-02-04T06:44:31.566Z,3.70
2023-02-04T06:47:05.789Z,1.88
2023-02-04T06:49:38.906Z,1.13
2023-02-04T06:52:16.146Z,1.42
2023-02-04T06:54:43.911Z,0.88
2023-02-04T06:57:12.386Z,1.40
2023-02-04T06:59:56.859Z,0.93
2023-02-04T07:02:40.968Z,0.95
2023-02-04T07:05:36.868Z,1.98
2023-02-04T07:08:05.797Z,1.55
2023-02-04T07:10:34.368Z,1.48
2023-02-04T07:13:07.828Z,1.33
2023-02-04T07:15:54.301Z,1.52
2023-02-04T07:18:26.251Z,3.70
2023-02-04T07:21:03.119Z,2.08
2023-02-04T07:23:35.039Z,2.55
2023-02-04T07:26:11.420Z,2.20
2023-02-04T07:28:42.634Z,1.73
2023-02-04T07:31:23.016Z,3.50
2023-02-04T07:33:50.856Z,2.28
2023-02-04T07:36:18.712Z,1.52
2023-02-04T07:38:47.658Z,1.33
2023-02-04T07:41:17.779Z,1.48
2023-02-04T07:43:45.683Z,1.55
2023-02-04T07:46:15.628Z,1.27
2023-02-04T07:48:44.633Z,1.00
2023-02-04T07:51:12.646Z,1.00
2023-02-04T07:53:43.471Z,2.25
2023-02-04T07:56:23.663Z,1.02
2023-02-04T07:59:14.221Z,0.73
2023-02-04T08:01:45.246Z,1.38
2023-02-04T08:04:15.122Z,1.77
2023-02-04T08:06:45.965Z,0.75
2023-02-04T08:09:15.818Z,0.82
2023-02-04T08:11:55.961Z,0.80
2023-02-04T08:14:32.908Z,1.25
2023-02-04T08:17:00.610Z,1.33
2023-02-04T08:19:28.431Z,1.95
2023-02-04T08:22:00.148Z,1.77
2023-02-04T08:24:30.104Z,2.17
2023-02-04T08:26:59.652Z,1.10
2023-02-04T08:29:43.108Z,1.48
2023-02-04T08:32:30.419Z,1.50
2023-02-04T08:35:08.182Z,3.08
2023-02-04T08:37:35.872Z,1.25
2023-02-04T08:40:14.122Z,2.92
2023-02-04T08:43:14.949Z,4.35
2023-02-04T08:45:47.693Z,2.20
2023-02-04T08:48:16.579Z,3.45
2023-02-04T08:50:44.338Z,2.70
2023-02-04T08:53:15.268Z,1.98
2023-02-04T08:55:44.312Z,1.98
2023-02-04T08:58:17.713Z,3.47
2023-02-04T09:00:50.714Z,1.83
2023-02-04T09:03:19.857Z,3.33
2023-02-04T09:06:01.021Z,2.20
2023-02-04T09:08:29.206Z,2.95
2023-02-04T09:11:13.551Z,1.88
2023-02-04T09:13:41.568Z,1.50
2023-02-04T09:16:12.131Z,1.67
2023-02-04T09:18:51.039Z,1.93
2023-02-04T09:21:21.947Z,1.42
2023-02-04T09:23:59.553Z,1.13
2023-02-04T09:26:36.495Z,1.88
2023-02-04T09:29:23.211Z,2.85
2023-02-04T09:31:51.165Z,1.58
2023-02-04T09:34:20.615Z,3.47
2023-02-04T09:36:50.573Z,1.40
2023-02-04T09:39:25.552Z,2.42
2023-02-04T09:42:15.324Z,1.38
2023-02-04T09:44:48.360Z,2.60
2023-02-04T09:47:16.918Z,2.05
2023-02-04T09:49:48.197Z,1.67
2023-02-04T09:52:17.431Z,1.98
2023-02-04T09:54:50.603Z,1.63
2023-02-04T09:57:21.690Z,1.45
2023-02-04T09:59:54.221Z,3.33
2023-02-04T10:02:28.072Z,2.15
2023-02-04T10:04:59.140Z,1.63
2023-02-04T10:07:49.738Z,1.55
2023-02-04T10:10:26.613Z,1.70
2023-02-04T10:13:33.376Z,2.50
2023-02-04T10:16:14.339Z,4.43
2023-02-04T10:19:04.902Z,3.33
2023-02-04T10:21:38.678Z,3.17
2023-02-04T10:24:17.581Z,2.15
2023-02-04T10:26:45.510Z,1.98
2023-02-04T10:29:18.615Z,2.25
2023-02-04T10:31:51.205Z,1.77
2023-02-04T10:34:34.852Z,2.20
2023-02-04T10:37:32.289Z,2.30
2023-02-04T10:40:06.821Z,4.85
2023-02-04T10:42:34.684Z,2.20
2023-02-04T10:45:22.836Z,2.10
2023-02-04T10:48:00.259Z,1.80
2023-02-04T10:50:29.063Z,3.10
2023-02-04T10:53:21.220Z,4.00
2023-02-04T10:55:50.172Z,1.85
2023-02-04T10:58:28.825Z,3.28
2023-02-04T11:00:56.691Z,2.53
2023-02-04T11:03:32.021Z,1.73
2023-02-04T11:06:00.794Z,1.40
2023-02-04T11:08:38.254Z,3.65
2023-02-04T11:11:15.250Z,2.15
2023-02-04T11:13:57.466Z,1.92
2023-02-04T11:16:27.520Z,2.95
2023-02-04T11:19:02.296Z,1.52
2023-02-04T11:21:46.645Z,3.35
2023-02-04T11:24:15.793Z,2.95
2023-02-04T11:26:51.285Z,2.47
2023-02-04T11:29:37.281Z,4.40
2023-02-04T11:32:27.059Z,2.30
2023-02-04T11:35:16.509Z,3.80
2023-02-04T11:37:53.720Z,2.30
2023-02-04T11:40:26.317Z,2.75
2023-02-04T11:43:21.934Z,2.42
2023-02-04T11:46:25.132Z,2.22
2023-02-04T11:49:20.406Z,4.25
2023-02-04T11:51:48.665Z,2.47
2023-02-04T11:54:20.250Z,3.65
2023-02-04T11:57:01.132Z,2.17
2023-02-04T11:59:48.320Z,3.42
2023-02-04T12:02:24.536Z,2.40
2023-02-04T12:05:18.454Z,2.97
2023-02-04T12:07:55.508Z,2.15
2023-02-04T12:10:44.992Z,3.15
2023-02-04T12:13:24.547Z,3.92
2023-02-04T12:16:04.009Z,2.58
2023-02-04T12:18:45.251Z,3.47
2023-02-04T12:21:15.996Z,2.47
2023-02-04T12:23:48.165Z,2.10
2023-02-04T12:26:24.224Z,2.65
2023-02-04T12:29:13.520Z,2.35
2023-02-04T12:31:43.447Z,3.95
2023-02-04T12:34:34.109Z,3.25
2023-02-04T12:37:28.238Z,4.13
2023-02-04T12:39:59.126Z,3.95
2023-02-04T12:42:42.249Z,2.53
2023-02-04T12:45:33.657Z,3.60
2023-02-04T12:48:01.565Z,3.83
2023-02-04T12:50:29.484Z,2.83
2023-02-04T12:53:05.809Z,2.42
2023-02-04T12:55:47.856Z,2.38
2023-02-04T12:58:15.971Z,3.03
2023-02-04T13:00:54.413Z,3.45
2023-02-04T13:03:38.457Z,2.42
2023-02-04T13:06:18.995Z,2.67
2023-02-04T13:08:56.252Z,5.53
2023-02-04T13:11:29.194Z,3.50
2023-02-04T13:14:10.256Z,2.10
2023-02-04T13:16:54.434Z,2.10
2023-02-04T13:20:01.586Z,1.70
2023-02-04T13:22:30.501Z,2.38
2023-02-04T13:25:12.869Z,2.15
2023-02-04T13:27:47.144Z,1.85
2023-02-04T13:30:36.613Z,1.65
2023-02-04T13:33:07.986Z,2.17
2023-02-04T13:35:36.019Z,2.78
2023-02-04T13:38:06.072Z,2.25
2023-02-04T13:40:35.956Z,3.42
2023-02-04T13:43:03.955Z,2.22
2023-02-04T13:45:50.201Z,2.78
2023-02-04T13:48:23.133Z,1.73
2023-02-04T13:50:52.053Z,2.92
2023-02-04T13:53:20.755Z,2.50
2023-02-04T13:55:49.543Z,1.60
2023-02-04T13:58:23.869Z,2.53
2023-02-04T14:00:58.385Z,2.53
2023-02-04T14:03:30.895Z,2.50
2023-02-04T14:06:01.799Z,1.80
2023-02-04T14:08:40.590Z,4.40
2023-02-04T14:11:14.874Z,2.42
2023-02-04T14:13:49.885Z,1.60
2023-02-04T14:16:21.851Z,2.08
2023-02-04T14:18:55.716Z,1.67
2023-02-04T14:21:26.420Z,1.55
2023-02-04T14:23:58.192Z,1.60
2023-02-04T14:26:32.199Z,2.38
2023-02-04T14:29:08.242Z,2.15
2023-02-04T14:31:38.529Z,1.98
2023-02-04T14:34:43.686Z,3.47
2023-02-04T14:37:12.089Z,2.05
2023-02-04T14:39:55.225Z,1.55
2023-02-04T14:42:24.251Z,2.03
2023-02-04T14:44:59.510Z,1.92
2023-02-04T14:47:39.049Z,2.40
2023-02-04T14:50:19.933Z,2.28
2023-02-04T14:53:04.950Z,1.88
2023-02-04T14:55:32.876Z,1.73
2023-02-04T14:58:05.964Z,1.92
2023-02-04T15:00:48.233Z,1.20
2023-02-04T15:03:34.522Z,3.47
2023-02-04T15:06:15.781Z,1.58
2023-02-04T15:08:46.803Z,1.52
2023-02-04T15:11:23.110Z,2.53
2023-02-04T15:14:10.113Z,1.60
2023-02-04T15:16:57.355Z,2.50
2023-02-04T15:19:28.487Z,1.40
2023-02-04T15:21:57.621Z,1.40
2023-02-04T15:24:28.985Z,1.30
2023-02-04T15:27:28.126Z,2.22
2023-02-04T15:29:58.242Z,2.47
2023-02-04T15:32:27.483Z,3.97
2023-02-04T15:35:17.185Z,3.22
2023-02-04T15:37:52.095Z,2.95
2023-02-04T15:40:31.544Z,3.78
2023-02-04T15:43:07.746Z,3.40
2023-02-04T15:45:36.781Z,3.17
2023-02-04T15:48:11.887Z,2.17
2023-02-04T15:50:40.053Z,2.05
2023-02-04T15:53:16.024Z,2.22
2023-02-04T15:55:47.153Z,2.00
2023-02-04T15:58:23.142Z,2.45
2023-02-04T16:00:53.139Z,3.28
2023-02-04T16:03:37.478Z,3.58
2023-02-04T16:06:09.686Z,3.45
2023-02-04T16:08:50.226Z,5.70
2023-02-04T16:11:22.431Z,3.75
2023-02-04T16:13:57.051Z,3.42
2023-02-04T16:16:30.296Z,3.70
2023-02-04T16:18:59.117Z,3.65
2023-02-04T16:21:42.508Z,2.13
2023-02-04T16:24:11.658Z,1.77
2023-02-04T16:26:46.939Z,2.95
2023-02-04T16:29:18.682Z,3.67
2023-02-04T16:32:04.938Z,2.08
2023-02-04T16:34:58.716Z,1.98
2023-02-04T16:37:31.672Z,1.65
2023-02-04T16:39:59.636Z,1.45
2023-02-04T16:42:49.408Z,2.08
2023-02-04T16:45:17.394Z,3.25
2023-02-04T16:47:56.545Z,2.17
2023-02-04T16:51:05.617Z,1.83
2023-02-04T16:53:47.892Z,2.92
2023-02-04T16:56:22.183Z,2.67
2023-02-04T16:59:05.619Z,3.13
2023-02-04T17:01:43.998Z,2.47
2023-02-04T17:04:25.330Z,2.33
2023-02-04T17:06:54.632Z,2.10
2023-02-04T17:09:22.724Z,2.60
2023-02-04T17:11:55.703Z,3.05
2023-02-04T17:14:25.076Z,3.45
2023-02-04T17:16:53.005Z,2.55
2023-02-04T17:19:22.573Z,2.55
2023-02-04T17:21:50.427Z,3.03
2023-02-04T17:24:18.509Z,2.65
2023-02-04T17:26:56.940Z,1.77
2023-02-04T17:29:41.382Z,1.77
2023-02-04T17:32:21.596Z,3.25
2023-02-04T17:35:10.366Z,2.60
2023-02-04T17:37:43.331Z,3.28
2023-02-04T17:40:17.207Z,2.75
2023-02-04T17:42:45.153Z,3.42
2023-02-04T17:45:16.209Z,2.53
2023-02-04T17:47:48.274Z,1.75
2023-02-04T17:50:28.604Z,3.03
2023-02-04T17:53:00.636Z,1.95
2023-02-04T17:55:48.173Z,4.40
2023-02-04T17:58:23.364Z,1.98
2023-02-04T18:00:57.460Z,2.78
2023-02-04T18:03:27.347Z,3.65
2023-02-04T18:06:00.627Z,3.88
2023-02-04T18:08:33.284Z,3.08
2023-02-04T18:11:01.017Z,2.70
2023-02-04T18:13:43.380Z,3.13
2023-02-04T18:16:33.116Z,1.85
2023-02-04T18:19:45.102Z,3.28
2023-02-04T18:25:05.647Z,3.17
2023-02-04T18:27:45.674Z,4.22
2023-02-04T18:30:21.060Z,2.80
2023-02-04T18:32:57.495Z,4.72
2023-02-04T18:35:37.317Z,4.03
2023-02-04T18:38:17.343Z,5.28
2023-02-04T18:41:08.253Z,3.83
2023-02-04T18:43:51.642Z,5.30
2023-02-04T18:46:41.239Z,5.18
2023-02-04T18:49:19.724Z,9.13
2023-02-04T18:51:47.658Z,6.45
2023-02-04T18:54:20.748Z,4.40
2023-02-04T18:57:13.649Z,6.72
2023-02-04T19:03:21.904Z,4.00
2023-02-04T19:05:50.810Z,5.35
2023-02-04T19:08:23.169Z,4.72
2023-02-04T19:10:53.761Z,7.28
2023-02-04T19:13:27.196Z,4.40
2023-02-04T19:16:07.750Z,8.65
2023-02-04T19:18:51.075Z,10.10
2023-02-04T19:21:50.414Z,6.82
2023-02-04T19:24:35.447Z,4.53
2023-02-04T19:27:38.128Z,5.03
2023-02-04T19:30:36.470Z,3.60
2023-02-04T19:33:11.617Z,7.93
2023-02-04T19:35:54.953Z,7.68
2023-02-04T19:38:38.086Z,11.13
2023-02-04T19:41:25.560Z,9.27
2023-02-04T19:44:21.433Z,11.25
2023-02-04T19:46:52.192Z,5.18
2023-02-04T19:49:27.500Z,7.40
2023-02-04T19:51:59.209Z,10.20
2023-02-04T19:54:45.653Z,10.43
2023-02-04T19:57:34.277Z,10.50
2023-02-04T20:00:27.893Z,8.32
2023-02-04T20:02:58.253Z,8.70
2023-02-04T20:05:42.348Z,6.40
2023-02-04T20:08:34.146Z,6.65
2023-02-04T20:13:51.705Z,10.60
2023-02-04T20:16:50.410Z,6.63
2023-02-04T20:19:42.875Z,7.28
2023-02-04T20:25:35.090Z,5.25
2023-02-04T20:28:31.528Z,5.75
2023-02-04T20:31:01.520Z,5.10
2023-02-04T20:33:33.483Z,9.45
2023-02-04T20:36:34.872Z,8.40
2023-02-04T20:39:10.868Z,10.02
2023-02-04T20:41:40.269Z,9.55
2023-02-04T20:44:18.137Z,10.05
2023-02-04T20:47:14.132Z,9.30
2023-02-04T20:49:57.766Z,9.13
2023-02-04T20:52:46.877Z,8.85
2023-02-04T20:55:31.521Z,6.95
2023-02-04T20:58:18.218Z,8.55
2023-02-04T21:00:57.018Z,8.23
2023-02-04T21:03:42.256Z,11.55
2023-02-04T21:06:30.860Z,13.38
2023-02-04T21:12:14.878Z,8.57
2023-02-04T21:14:50.130Z,8.80
2023-02-04T21:17:29.528Z,9.15
2023-02-04T21:20:23.260Z,8.38
2023-02-04T21:22:58.677Z,8.30
2023-02-04T21:25:28.849Z,10.13
2023-02-04T21:28:00.922Z,8.90
2023-02-04T21:30:38.429Z,8.95
2023-02-04T21:33:06.244Z,9.43
2023-02-04T21:35:53.440Z,12.15
2023-02-04T21:38:41.750Z,5.15
2023-02-04T21:41:29.396Z,5.35
2023-02-04T21:44:16.773Z,5.97
2023-02-04T21:47:27.723Z,6.47
2023-02-04T21:50:20.550Z,7.23
2023-02-04T21:52:48.706Z,5.20
2023-02-04T21:55:20.868Z,5.32
2023-02-04T21:57:51.980Z,5.22
2023-02-04T22:00:21.136Z,6.07
2023-02-04T22:02:49.021Z,5.20
2023-02-04T22:05:18.135Z,5.85
2023-02-04T22:07:54.275Z,4.72
2023-02-04T22:10:33.598Z,4.13
2023-02-04T22:13:09.084Z,5.63
2023-02-04T22:15:36.985Z,6.43
2023-02-04T22:18:21.924Z,5.72
2023-02-04T22:21:07.256Z,8.05
2023-02-04T22:26:53.284Z,6.40
2023-02-04T22:29:29.867Z,5.20
2023-02-04T22:32:02.142Z,7.68
2023-02-04T22:35:06.526Z,7.78
2023-02-04T22:37:54.538Z,7.75
2023-02-04T22:41:00.536Z,7.65
2023-02-04T22:43:28.564Z,9.55
2023-02-04T22:46:09.858Z,8.27
2023-02-04T22:49:01.710Z,8.95
2023-02-04T22:54:19.410Z,8.05
2023-02-04T22:57:01.507Z,13.03
2023-02-04T22:59:36.486Z,6.85
2023-02-04T23:02:11.452Z,4.90
2023-02-04T23:04:59.766Z,9.52
2023-02-04T23:07:46.919Z,7.18
2023-02-04T23:10:17.997Z,6.93
2023-02-04T23:13:09.457Z,9.85
2023-02-04T23:15:52.740Z,15.43
2023-02-04T23:18:23.719Z,11.35
2023-02-04T23:21:07.177Z,10.82
2023-02-04T23:23:42.499Z,4.88
2023-02-04T23:26:12.546Z,6.68
2023-02-04T23:28:47.810Z,7.78
2023-02-04T23:31:16.643Z,8.00
2023-02-04T23:33:45.727Z,6.78
2023-02-04T23:36:29.871Z,7.35
2023-02-04T23:39:16.053Z,4.70
2023-02-04T23:41:47.835Z,4.50
2023-02-04T23:44:15.734Z,5.90
2023-02-04T23:46:43.987Z,5.60
2023-02-04T23:49:14.182Z,6.72
2023-02-04T23:51:53.013Z,4.68
2023-02-04T23:54:46.071Z,5.85
2023-02-04T23:57:31.752Z,6.30
